createdAt,value
2023-05-03T00:00:29.535Z,49.83
2023-05-03T00:03:14.623Z,51.88
2023-05-03T00:05:43.457Z,51.19
2023-05-03T00:08:12.511Z,50.54
2023-05-03T00:10:41.538Z,49.68
2023-05-03T00:13:10.700Z,49.42
2023-05-03T00:15:39.731Z,49.37
2023-05-03T00:18:08.997Z,49.21
2023-05-03T00:20:39.272Z,49.03
2023-05-03T00:23:08.880Z,49.10
2023-05-03T00:25:37.635Z,48.92
2023-05-03T00:28:06.850Z,49.04
2023-05-03T00:30:35.648Z,48.90
2023-05-03T00:33:05.023Z,48.96
2023-05-03T00:35:33.998Z,49.02
2023-05-03T00:38:04.862Z,49.08
2023-05-03T00:40:34.126Z,48.77
2023-05-03T00:43:03.235Z,48.86
2023-05-03T00:45:34.123Z,48.57
2023-05-03T00:48:03.432Z,49.02
2023-05-03T00:50:32.322Z,48.84
2023-05-03T00:53:01.804Z,48.76
2023-05-03T00:55:32.655Z,48.83
2023-05-03T00:58:01.856Z,48.88
2023-05-03T01:00:30.681Z,48.66
2023-05-03T01:02:59.956Z,49.23
2023-05-03T01:05:30.223Z,48.69
2023-05-03T01:08:03.249Z,48.59
2023-05-03T01:10:39.590Z,48.72
2023-05-03T01:13:13.269Z,48.50
2023-05-03T01:15:47.047Z,48.79
2023-05-03T01:18:17.651Z,48.47
2023-05-03T01:20:48.677Z,48.46
2023-05-03T01:23:22.881Z,48.75
2023-05-03T01:25:54.524Z,48.60
2023-05-03T01:28:23.718Z,48.49
2023-05-03T01:30:55.651Z,48.73
2023-05-03T01:33:27.586Z,48.84
2023-05-03T01:36:01.221Z,49.02
2023-05-03T01:38:34.243Z,48.70
2023-05-03T01:41:07.718Z,48.63
2023-05-03T01:43:37.323Z,48.98
2023-05-03T01:46:06.264Z,48.90
2023-05-03T01:48:35.535Z,48.87
2023-05-03T01:51:05.972Z,48.99
2023-05-03T01:53:35.158Z,48.94
2023-05-03T01:56:05.453Z,48.96
2023-05-03T01:58:35.456Z,49.12
2023-05-03T02:01:05.660Z,49.29
2023-05-03T02:03:35.140Z,48.97
2023-05-03T02:06:03.947Z,49.35
2023-05-03T02:08:33.227Z,50.06
2023-05-03T02:11:02.111Z,49.64
2023-05-03T02:13:33.057Z,50.45
2023-05-03T02:16:02.170Z,50.70
2023-05-03T02:18:32.351Z,49.99
2023-05-03T02:21:01.258Z,49.93
2023-05-03T02:23:30.271Z,50.19
2023-05-03T02:25:59.196Z,51.33
2023-05-03T02:28:28.221Z,51.05
2023-05-03T02:31:17.135Z,52.50
2023-05-03T02:33:47.699Z,50.96
2023-05-03T02:36:16.695Z,52.26
2023-05-03T02:38:46.953Z,56.53
2023-05-03T02:41:15.903Z,56.10
2023-05-03T02:43:45.125Z,55.79
2023-05-03T02:46:15.043Z,58.51
2023-05-03T02:48:44.257Z,56.30
2023-05-03T02:51:15.120Z,54.52
2023-05-03T02:53:44.344Z,54.20
2023-05-03T02:56:13.245Z,53.52
2023-05-03T02:58:42.327Z,53.37
2023-05-03T03:01:12.027Z,54.11
2023-05-03T03:03:42.258Z,54.68
2023-05-03T03:06:11.215Z,54.15
2023-05-03T03:08:42.266Z,53.84
2023-05-03T03:11:11.534Z,56.05
2023-05-03T03:13:41.349Z,55.75
2023-05-03T03:16:11.482Z,54.93
2023-05-03T03:18:40.735Z,56.24
2023-05-03T03:21:10.419Z,59.75
2023-05-03T03:23:39.854Z,56.54
2023-05-03T03:26:10.118Z,58.19
2023-05-03T03:28:39.324Z,59.84
2023-05-03T03:31:12.304Z,58.60
2023-05-03T03:33:42.626Z,57.97
2023-05-03T03:36:16.866Z,58.62
2023-05-03T03:38:48.718Z,58.29
2023-05-03T03:41:18.975Z,58.39
2023-05-03T03:43:48.608Z,60.99
2023-05-03T03:46:21.241Z,60.98
2023-05-03T03:48:54.430Z,61.67
2023-05-03T03:51:24.663Z,62.03
2023-05-03T03:53:54.428Z,63.64
2023-05-03T03:56:26.939Z,63.21
2023-05-03T03:59:00.873Z,62.55
2023-05-03T04:01:29.864Z,62.74
2023-05-03T04:03:59.362Z,64.09
2023-05-03T04:06:28.977Z,62.42
2023-05-03T04:08:59.586Z,64.53
2023-05-03T04:11:30.017Z,66.35
2023-05-03T04:14:04.505Z,65.21
2023-05-03T04:16:34.769Z,64.54
2023-05-03T04:19:06.226Z,66.60
2023-05-03T04:21:38.290Z,66.69
2023-05-03T04:24:07.938Z,66.36
2023-05-03T04:26:38.285Z,66.63
2023-05-03T04:29:20.028Z,66.18
2023-05-03T04:31:49.475Z,66.33
2023-05-03T04:34:19.567Z,67.15
2023-05-03T04:36:52.060Z,67.39
2023-05-03T04:39:22.122Z,67.33
2023-05-03T04:41:52.500Z,67.30
2023-05-03T04:44:22.415Z,67.42
2023-05-03T04:46:52.349Z,66.94
2023-05-03T04:49:21.799Z,66.94
2023-05-03T04:51:50.677Z,67.07
2023-05-03T04:54:21.159Z,66.02
2023-05-03T04:56:50.552Z,66.33
2023-05-03T04:59:22.674Z,65.10
2023-05-03T05:01:52.005Z,65.45
2023-05-03T05:04:21.294Z,65.54
2023-05-03T05:06:52.897Z,65.28
2023-05-03T05:09:26.638Z,64.40
2023-05-03T05:11:58.351Z,64.36
2023-05-03T05:14:34.840Z,64.50
2023-05-03T05:17:04.878Z,63.90
2023-05-03T05:19:34.064Z,63.51
2023-05-03T05:22:03.356Z,63.41
2023-05-03T05:24:41.930Z,63.38
2023-05-03T05:27:13.376Z,63.34
2023-05-03T05:29:44.459Z,63.02
2023-05-03T05:32:14.090Z,62.71
2023-05-03T05:34:45.785Z,62.56
2023-05-03T05:37:18.947Z,62.25
2023-05-03T05:39:49.915Z,62.06
2023-05-03T05:42:21.292Z,62.00
2023-05-03T05:44:52.425Z,61.75
2023-05-03T05:47:22.771Z,61.74
2023-05-03T05:49:55.110Z,61.36
2023-05-03T05:52:24.246Z,61.32
2023-05-03T05:54:53.715Z,61.04
2023-05-03T05:57:24.294Z,60.18
2023-05-03T05:59:55.302Z,60.00
2023-05-03T06:02:25.213Z,59.45
2023-05-03T06:04:54.555Z,59.52
2023-05-03T06:07:25.194Z,59.55
2023-05-03T06:09:54.460Z,59.18
2023-05-03T06:12:24.053Z,58.65
2023-05-03T06:15:02.468Z,58.47
2023-05-03T06:17:38.988Z,58.08
2023-05-03T06:20:12.049Z,57.67
2023-05-03T06:22:42.490Z,56.29
2023-05-03T06:25:16.289Z,56.49
2023-05-03T06:27:49.893Z,56.79
2023-05-03T06:30:23.824Z,55.60
2023-05-03T06:32:53.415Z,54.68
2023-05-03T06:35:23.125Z,54.14
2023-05-03T06:37:52.204Z,54.03
2023-05-03T06:40:24.778Z,53.78
2023-05-03T06:42:53.628Z,53.46
2023-05-03T06:45:35.545Z,52.34
2023-05-03T06:48:04.946Z,52.00
2023-05-03T06:50:34.027Z,52.04
2023-05-03T06:53:03.145Z,50.35
2023-05-03T06:55:33.048Z,50.25
2023-05-03T06:58:02.151Z,50.09
2023-05-03T07:00:31.299Z,48.92
2023-05-03T07:03:01.781Z,49.38
2023-05-03T07:05:31.410Z,47.73
2023-05-03T07:08:00.153Z,48.01
2023-05-03T07:10:31.250Z,46.05
2023-05-03T07:13:00.390Z,46.88
2023-05-03T07:15:29.636Z,46.40
2023-05-03T07:17:58.678Z,46.60
2023-05-03T07:20:29.338Z,45.97
2023-05-03T07:22:58.658Z,45.93
2023-05-03T07:25:27.838Z,46.01
2023-05-03T07:27:57.047Z,45.54
2023-05-03T07:30:26.240Z,44.56
2023-05-03T07:32:55.514Z,45.33
2023-05-03T07:35:26.738Z,44.12
2023-05-03T07:37:57.822Z,42.90
2023-05-03T07:40:28.812Z,43.18
2023-05-03T07:42:57.918Z,43.28
2023-05-03T07:45:27.184Z,43.75
2023-05-03T07:47:56.612Z,43.07
2023-05-03T07:50:25.875Z,43.29
2023-05-03T07:52:55.991Z,42.45
2023-05-03T07:55:26.831Z,42.56
2023-05-03T07:57:59.273Z,42.55
2023-05-03T08:00:28.622Z,42.06
2023-05-03T08:02:58.901Z,41.85
2023-05-03T08:05:29.588Z,41.08
2023-05-03T08:07:58.378Z,40.08
2023-05-03T08:10:28.842Z,40.40
2023-05-03T08:12:57.717Z,40.19
2023-05-03T08:15:26.797Z,39.56
2023-05-03T08:17:55.772Z,40.07
2023-05-03T08:20:27.272Z,39.88
2023-05-03T08:22:56.912Z,39.62
2023-05-03T08:25:26.177Z,39.81
2023-05-03T08:27:56.739Z,40.46
2023-05-03T08:30:26.821Z,39.86
2023-05-03T08:32:55.782Z,40.12
2023-05-03T08:35:25.386Z,40.51
2023-05-03T08:37:54.303Z,40.19
2023-05-03T08:40:24.069Z,40.76
2023-05-03T08:42:53.901Z,41.17
2023-05-03T08:45:24.785Z,40.25
2023-05-03T08:47:55.314Z,39.51
2023-05-03T08:50:25.990Z,39.65
2023-05-03T08:52:54.916Z,40.23
2023-05-03T08:55:23.935Z,40.70
2023-05-03T08:57:52.896Z,40.58
2023-05-03T09:00:28.528Z,40.39
2023-05-03T09:02:57.494Z,40.85
2023-05-03T09:05:39.011Z,39.26
2023-05-03T09:08:09.531Z,39.89
2023-05-03T09:10:39.606Z,40.18
2023-05-03T09:13:10.414Z,40.56
2023-05-03T09:15:41.385Z,40.25
2023-05-03T09:18:11.945Z,39.65
2023-05-03T09:20:42.453Z,39.46
2023-05-03T09:23:11.627Z,39.56
2023-05-03T09:25:44.886Z,39.72
2023-05-03T09:28:13.906Z,39.07
2023-05-03T09:30:44.559Z,39.50
2023-05-03T09:33:19.286Z,38.19
2023-05-03T09:35:56.999Z,39.12
2023-05-03T09:38:29.281Z,39.01
2023-05-03T09:40:58.661Z,37.77
2023-05-03T09:43:27.439Z,37.50
2023-05-03T09:46:08.989Z,38.27
2023-05-03T09:48:37.953Z,37.69
2023-05-03T09:51:07.829Z,37.81
2023-05-03T09:53:37.519Z,37.44
2023-05-03T09:56:09.065Z,37.26
2023-05-03T09:58:37.941Z,36.87
2023-05-03T10:01:09.896Z,36.42
2023-05-03T10:03:41.057Z,37.94
2023-05-03T10:06:17.194Z,39.31
2023-05-03T10:08:49.700Z,37.30
2023-05-03T10:11:19.605Z,37.46
2023-05-03T10:13:48.614Z,37.36
2023-05-03T10:16:22.021Z,38.25
2023-05-03T10:18:55.044Z,37.92
2023-05-03T10:21:29.143Z,37.25
2023-05-03T10:24:11.001Z,36.79
2023-05-03T10:26:41.461Z,36.24
2023-05-03T10:29:29.259Z,36.75
2023-05-03T10:32:01.024Z,36.79
2023-05-03T10:34:32.394Z,37.67
2023-05-03T10:37:02.933Z,36.88
2023-05-03T10:39:32.497Z,34.36
2023-05-03T10:42:04.310Z,33.58
2023-05-03T10:44:36.583Z,34.38
2023-05-03T10:47:18.864Z,35.28
2023-05-03T10:49:47.657Z,35.00
2023-05-03T10:52:35.195Z,33.25
2023-05-03T10:55:10.118Z,35.00
2023-05-03T10:57:40.647Z,34.29
2023-05-03T11:00:13.405Z,34.64
2023-05-03T11:02:48.451Z,35.62
2023-05-03T11:05:18.683Z,32.75
2023-05-03T11:07:49.364Z,33.58
2023-05-03T11:10:20.877Z,34.88
2023-05-03T11:12:50.674Z,33.35
2023-05-03T11:15:19.541Z,33.97
2023-05-03T11:17:50.030Z,33.79
2023-05-03T11:20:21.200Z,33.16
2023-05-03T11:22:51.357Z,33.35
2023-05-03T11:25:20.158Z,35.19
2023-05-03T11:27:51.364Z,33.69
2023-05-03T11:30:20.202Z,34.79
2023-05-03T11:32:51.921Z,34.39
2023-05-03T11:35:26.433Z,35.32
2023-05-03T11:37:56.806Z,36.28
2023-05-03T11:40:26.218Z,36.48
2023-05-03T11:42:56.084Z,36.78
2023-05-03T11:45:25.894Z,36.91
2023-05-03T11:47:57.199Z,36.39
2023-05-03T11:50:51.553Z,36.69
2023-05-03T11:53:22.932Z,38.47
2023-05-03T11:55:54.413Z,37.72
2023-05-03T11:58:24.914Z,38.21
2023-05-03T12:00:54.960Z,37.15
2023-05-03T12:03:30.842Z,38.06
2023-05-03T12:06:02.810Z,37.37
2023-05-03T12:08:36.092Z,38.27
2023-05-03T12:11:09.475Z,37.70
2023-05-03T12:13:40.718Z,38.64
2023-05-03T12:16:14.726Z,38.36
2023-05-03T12:18:51.719Z,37.36
2023-05-03T12:23:55.924Z,37.44
2023-05-03T12:26:27.496Z,38.51
2023-05-03T12:28:57.205Z,37.20
2023-05-03T12:31:29.105Z,38.49
2023-05-03T12:34:30.971Z,36.89
2023-05-03T12:36:49.181Z,38.34
2023-05-03T12:39:21.708Z,37.86
2023-05-03T12:44:24.205Z,37.93
2023-05-03T12:46:53.686Z,38.95
2023-05-03T12:49:24.418Z,38.03
2023-05-03T12:52:11.114Z,38.46
2023-05-03T12:54:42.816Z,38.43
2023-05-03T12:57:15.396Z,38.32
2023-05-03T12:59:52.227Z,38.44
2023-05-03T13:04:59.579Z,38.69
2023-05-03T13:07:32.218Z,39.17
2023-05-03T13:12:36.279Z,38.77
2023-05-03T13:15:06.314Z,39.11
2023-05-03T13:17:35.829Z,38.83
2023-05-03T13:20:08.227Z,38.29
2023-05-03T13:22:37.445Z,39.67
2023-05-03T13:25:07.239Z,39.19
2023-05-03T13:27:36.277Z,38.94
2023-05-03T13:30:06.071Z,38.78
2023-05-03T13:32:35.018Z,39.08
2023-05-03T13:35:05.468Z,39.42
2023-05-03T13:37:38.669Z,39.40
2023-05-03T13:40:08.255Z,39.38
2023-05-03T13:42:37.490Z,38.00
2023-05-03T13:45:06.826Z,39.52
2023-05-03T13:47:53.553Z,39.34
2023-05-03T13:50:26.051Z,39.41
2023-05-03T13:52:57.656Z,39.37
2023-05-03T13:55:27.100Z,39.08
2023-05-03T13:57:56.404Z,38.95
2023-05-03T14:00:25.134Z,37.17
2023-05-03T14:02:55.671Z,37.50
2023-05-03T14:05:24.587Z,39.20
2023-05-03T14:07:53.656Z,36.89
2023-05-03T14:10:23.882Z,36.51
2023-05-03T14:12:53.301Z,36.64
2023-05-03T14:15:22.309Z,36.87
2023-05-03T14:17:51.423Z,36.27
2023-05-03T14:20:20.632Z,36.44
2023-05-03T14:22:50.733Z,37.00
2023-05-03T14:25:19.679Z,37.44
2023-05-03T14:27:50.121Z,36.73
2023-05-03T14:30:19.102Z,37.03
2023-05-03T14:32:48.251Z,35.79
2023-05-03T14:35:18.377Z,37.45
2023-05-03T14:37:47.771Z,36.50
2023-05-03T14:40:17.739Z,36.72
2023-05-03T14:42:46.847Z,36.00
2023-05-03T14:45:16.977Z,36.31
2023-05-03T14:47:46.234Z,36.74
2023-05-03T14:50:15.703Z,36.28
2023-05-03T14:52:46.247Z,36.44
2023-05-03T14:55:14.989Z,36.26
2023-05-03T14:57:44.189Z,35.95
2023-05-03T15:00:15.080Z,36.67
2023-05-03T15:02:46.798Z,36.25
2023-05-03T15:05:15.715Z,37.09
2023-05-03T15:07:44.924Z,37.17
2023-05-03T15:10:13.646Z,37.76
2023-05-03T15:12:43.101Z,37.27
2023-05-03T15:15:12.306Z,37.27
2023-05-03T15:17:41.405Z,37.31
2023-05-03T15:20:13.915Z,37.63
2023-05-03T15:22:43.216Z,38.09
2023-05-03T15:25:12.184Z,38.51
2023-05-03T15:27:41.413Z,36.84
2023-05-03T15:30:12.270Z,37.97
2023-05-03T15:32:42.879Z,37.63
2023-05-03T15:35:13.239Z,37.24
2023-05-03T15:37:42.482Z,37.07
2023-05-03T15:40:11.942Z,37.04
2023-05-03T15:42:41.255Z,37.72
2023-05-03T15:45:10.935Z,37.18
2023-05-03T15:47:40.219Z,36.24
2023-05-03T15:50:09.551Z,36.49
2023-05-03T15:52:40.598Z,36.50
2023-05-03T15:55:10.236Z,36.23
2023-05-03T15:57:39.788Z,34.06
2023-05-03T16:00:11.807Z,35.90
2023-05-03T16:02:41.241Z,34.09
2023-05-03T16:05:11.177Z,35.12
2023-05-03T16:07:41.840Z,34.09
2023-05-03T16:10:11.098Z,33.63
2023-05-03T16:12:40.918Z,34.71
2023-05-03T16:15:12.349Z,34.59
2023-05-03T16:17:41.650Z,35.37
2023-05-03T16:20:11.686Z,35.84
2023-05-03T16:22:42.383Z,35.27
2023-05-03T16:25:11.724Z,35.41
2023-05-03T16:27:40.978Z,35.16
2023-05-03T16:30:10.990Z,35.34
2023-05-03T16:32:40.533Z,34.39
2023-05-03T16:35:09.851Z,33.08
2023-05-03T16:37:40.783Z,33.66
2023-05-03T16:40:11.721Z,33.69
2023-05-03T16:42:42.739Z,34.26
2023-05-03T16:45:13.063Z,34.50
2023-05-03T16:47:42.298Z,33.73
2023-05-03T16:50:11.225Z,34.80
2023-05-03T16:52:41.109Z,34.49
2023-05-03T16:55:12.577Z,34.34
2023-05-03T16:57:45.105Z,34.55
2023-05-03T17:00:16.945Z,34.36
2023-05-03T17:02:46.495Z,34.40
2023-05-03T17:05:15.377Z,34.84
2023-05-03T17:07:47.615Z,34.77
2023-05-03T17:10:17.972Z,34.93
2023-05-03T17:12:48.754Z,35.42
2023-05-03T17:15:17.759Z,35.71
2023-05-03T17:17:47.078Z,35.62
2023-05-03T17:20:16.539Z,35.77
2023-05-03T17:22:48.412Z,35.82
2023-05-03T17:25:19.276Z,35.71
2023-05-03T17:27:48.565Z,36.25
2023-05-03T17:30:20.799Z,36.67
2023-05-03T17:32:50.590Z,36.64
2023-05-03T17:35:19.453Z,36.88
2023-05-03T17:37:49.074Z,36.78
2023-05-03T17:40:21.909Z,37.03
2023-05-03T17:42:51.697Z,37.74
2023-05-03T17:45:22.682Z,37.57
2023-05-03T17:47:53.078Z,37.60
2023-05-03T17:50:21.877Z,37.80
2023-05-03T17:52:51.543Z,37.75
2023-05-03T17:55:23.880Z,38.03
2023-05-03T17:57:53.658Z,38.29
2023-05-03T18:00:28.016Z,38.42
2023-05-03T18:02:58.585Z,38.84
2023-05-03T18:05:28.045Z,38.92
2023-05-03T18:07:59.965Z,39.02
2023-05-03T18:10:30.460Z,39.13
2023-05-03T18:13:00.821Z,39.51
2023-05-03T18:15:29.737Z,39.60
2023-05-03T18:17:59.007Z,39.75
2023-05-03T18:20:28.453Z,39.72
2023-05-03T18:22:57.504Z,40.43
2023-05-03T18:25:27.095Z,40.26
2023-05-03T18:27:58.262Z,40.73
2023-05-03T18:30:28.408Z,40.77
2023-05-03T18:33:00.369Z,41.18
2023-05-03T18:35:31.049Z,41.14
2023-05-03T18:38:00.754Z,41.09
2023-05-03T18:40:30.762Z,41.37
2023-05-03T18:43:01.413Z,41.43
2023-05-03T18:45:30.659Z,41.54
2023-05-03T18:48:01.071Z,41.42
2023-05-03T18:50:29.856Z,41.55
2023-05-03T18:52:59.033Z,41.71
2023-05-03T18:55:27.832Z,42.00
2023-05-03T18:57:59.663Z,42.06
2023-05-03T19:00:31.643Z,42.22
2023-05-03T19:03:03.176Z,42.24
2023-05-03T19:05:32.122Z,42.13
2023-05-03T19:08:01.226Z,42.04
2023-05-03T19:10:32.341Z,42.05
2023-05-03T19:13:03.022Z,42.18
2023-05-03T19:15:36.968Z,42.70
2023-05-03T19:18:06.498Z,42.22
2023-05-03T19:20:35.472Z,42.18
2023-05-03T19:23:04.816Z,42.56
2023-05-03T19:25:35.131Z,42.67
2023-05-03T19:28:06.794Z,43.05
2023-05-03T19:30:41.290Z,43.02
2023-05-03T19:33:10.636Z,42.52
2023-05-03T19:35:40.794Z,42.10
2023-05-03T19:38:10.710Z,42.01
2023-05-03T19:40:39.780Z,41.86
2023-05-03T19:43:08.999Z,41.64
2023-05-03T19:45:43.958Z,43.06
2023-05-03T19:48:14.608Z,42.61
2023-05-03T19:50:44.728Z,43.06
2023-05-03T19:53:13.913Z,42.46
2023-05-03T19:55:42.928Z,43.16
2023-05-03T19:58:12.151Z,42.83
2023-05-03T20:00:40.952Z,43.03
2023-05-03T20:03:12.117Z,43.71
2023-05-03T20:05:41.327Z,44.10
2023-05-03T20:08:10.672Z,44.09
2023-05-03T20:10:39.909Z,44.06
2023-05-03T20:13:11.547Z,43.84
2023-05-03T20:15:41.466Z,43.58
2023-05-03T20:18:12.049Z,43.36
2023-05-03T20:20:43.184Z,44.09
2023-05-03T20:23:12.949Z,43.84
2023-05-03T20:25:43.611Z,44.19
2023-05-03T20:28:16.751Z,43.98
2023-05-03T20:30:45.736Z,43.42
2023-05-03T20:33:16.464Z,43.64
2023-05-03T20:35:45.380Z,43.49
2023-05-03T20:38:14.480Z,44.01
2023-05-03T20:40:43.579Z,43.50
2023-05-03T20:43:14.730Z,43.68
2023-05-03T20:45:44.432Z,43.69
2023-05-03T20:48:14.654Z,44.62
2023-05-03T20:50:45.024Z,44.03
2023-05-03T20:53:14.173Z,44.09
2023-05-03T20:55:43.145Z,43.62
2023-05-03T20:58:15.315Z,43.77
2023-05-03T21:00:44.260Z,43.86
2023-05-03T21:03:13.375Z,43.79
2023-05-03T21:05:44.942Z,43.76
2023-05-03T21:08:14.157Z,43.45
2023-05-03T21:10:43.101Z,44.46
2023-05-03T21:13:12.372Z,43.82
2023-05-03T21:15:42.500Z,43.83
2023-05-03T21:18:11.818Z,43.71
2023-05-03T21:20:40.584Z,43.71
2023-05-03T21:23:10.994Z,43.79
2023-05-03T21:25:39.867Z,44.30
2023-05-03T21:28:08.983Z,45.36
2023-05-03T21:30:38.168Z,44.98
2023-05-03T21:33:07.306Z,44.42
2023-05-03T21:35:38.621Z,44.69
2023-05-03T21:38:07.923Z,44.68
2023-05-03T21:40:38.054Z,44.83
2023-05-03T21:43:09.281Z,46.14
2023-05-03T21:45:38.266Z,44.89
2023-05-03T21:48:07.503Z,45.67
2023-05-03T21:50:38.628Z,46.61
2023-05-03T21:53:08.013Z,45.12
2023-05-03T21:55:38.134Z,45.20
2023-05-03T21:58:07.331Z,46.21
2023-05-03T22:00:36.385Z,49.82
2023-05-03T22:03:05.755Z,46.53
2023-05-03T22:05:34.616Z,47.54
2023-05-03T22:08:03.662Z,49.00
2023-05-03T22:10:32.526Z,47.04
2023-05-03T22:13:03.017Z,47.65
2023-05-03T22:15:32.103Z,50.20
2023-05-03T22:18:01.298Z,50.84
2023-05-03T22:20:30.470Z,54.03
2023-05-03T22:22:59.535Z,52.89
2023-05-03T22:25:32.090Z,51.85
2023-05-03T22:28:03.074Z,55.75
2023-05-03T22:30:32.087Z,55.19
2023-05-03T22:33:01.290Z,53.16
2023-05-03T22:35:30.218Z,50.68
2023-05-03T22:37:59.835Z,49.58
2023-05-03T22:40:28.771Z,49.47
2023-05-03T22:42:57.857Z,51.22
2023-05-03T22:45:28.056Z,54.22
2023-05-03T22:47:57.293Z,50.33
2023-05-03T22:50:26.152Z,51.43
2023-05-03T22:52:55.335Z,52.66
2023-05-03T22:55:24.080Z,50.67
2023-05-03T22:57:53.266Z,54.94
2023-05-03T23:00:22.452Z,56.75
2023-05-03T23:02:53.039Z,54.13
2023-05-03T23:05:22.261Z,56.03
2023-05-03T23:07:51.344Z,55.06
2023-05-03T23:10:20.196Z,51.04
2023-05-03T23:12:50.149Z,49.96
2023-05-03T23:15:19.197Z,50.14
2023-05-03T23:17:48.305Z,49.51
2023-05-03T23:20:18.603Z,49.28
2023-05-03T23:22:48.316Z,49.27
2023-05-03T23:25:17.236Z,48.69
2023-05-03T23:27:46.732Z,48.35
2023-05-03T23:30:15.982Z,49.38
2023-05-03T23:32:46.722Z,49.08
2023-05-03T23:35:16.255Z,49.26
2023-05-03T23:37:47.103Z,49.84
2023-05-03T23:40:15.932Z,49.96
2023-05-03T23:42:46.403Z,49.60
2023-05-03T23:45:15.153Z,50.68
2023-05-03T23:47:44.366Z,51.06
2023-05-03T23:50:13.106Z,49.58
2023-05-03T23:52:42.796Z,49.14
2023-05-03T23:55:13.235Z,51.73
2023-05-03T23:57:42.402Z,49.82
